createdAt,value
2022-10-07T00:01:04.205Z,102450.31
2022-10-07T00:03:32.442Z,102455.63
2022-10-07T00:06:01.719Z,102458.78
2022-10-07T00:08:30.000Z,102440.06
2022-10-07T00:10:58.083Z,102443.13
2022-10-07T00:13:26.048Z,102448.56
2022-10-07T00:15:55.323Z,102448.94
2022-10-07T00:18:23.224Z,102444.19
2022-10-07T00:20:51.155Z,102433.53
2022-10-07T00:23:19.021Z,102430.16
2022-10-07T00:25:46.897Z,102436.34
2022-10-07T00:28:14.856Z,102429.38
2022-10-07T00:30:42.796Z,102431.09
2022-10-07T00:33:12.089Z,102426.69
2022-10-07T00:35:40.142Z,102434.81
2022-10-07T00:38:08.039Z,102426.75
2022-10-07T00:40:35.974Z,102426.44
2022-10-07T00:43:22.596Z,102426.72
2022-10-07T00:45:50.860Z,102426.09
2022-10-07T00:48:24.501Z,102424.47
2022-10-07T00:50:54.194Z,102421.25
2022-10-07T00:53:22.894Z,102411.84
2022-10-07T00:55:50.876Z,102410.31
2022-10-07T00:58:19.442Z,102414.84
2022-10-07T01:00:48.016Z,102412.19
2022-10-07T01:03:16.249Z,102408.81
2022-10-07T01:05:45.543Z,102402.97
2022-10-07T01:08:14.153Z,102401.75
2022-10-07T01:10:47.236Z,102396.34
2022-10-07T01:13:19.320Z,102404.44
2022-10-07T01:15:53.288Z,102394.91
2022-10-07T01:18:26.549Z,102392.59
2022-10-07T01:21:00.017Z,102386.38
2022-10-07T01:23:41.874Z,102379.28
2022-10-07T01:26:39.199Z,102371.72
2022-10-07T01:29:11.058Z,102364.13
2022-10-07T01:31:43.249Z,102356.44
2022-10-07T01:34:12.045Z,102353.16
2022-10-07T01:36:40.953Z,102352.63
2022-10-07T01:39:12.129Z,102344.69
2022-10-07T01:41:40.498Z,102345.28
2022-10-07T01:44:10.558Z,102343.31
2022-10-07T01:46:38.543Z,102339.19
2022-10-07T01:49:07.238Z,102339.13
2022-10-07T01:51:37.662Z,102338.84
2022-10-07T01:54:14.305Z,102326.38
2022-10-07T01:56:51.245Z,102322.53
2022-10-07T01:59:30.546Z,102328.53
2022-10-07T02:02:04.850Z,102331.06
2022-10-07T02:04:44.526Z,102320.03
2022-10-07T02:07:22.703Z,102317.22
2022-10-07T02:09:55.193Z,102319.91
2022-10-07T02:12:26.385Z,102317.81
2022-10-07T02:14:58.972Z,102312.94
2022-10-07T02:17:28.014Z,102298.72
2022-10-07T02:19:57.553Z,102302.56
2022-10-07T02:22:28.490Z,102308.34
2022-10-07T02:24:59.171Z,102302.31
2022-10-07T02:27:30.268Z,102295.41
2022-10-07T02:30:02.666Z,102294.38
2022-10-07T02:32:31.810Z,102292.44
2022-10-07T02:35:03.550Z,102287.81
2022-10-07T02:37:35.238Z,102282.34
2022-10-07T02:40:07.104Z,102286.72
2022-10-07T02:42:41.251Z,102277.19
2022-10-07T02:45:16.547Z,102284.16
2022-10-07T02:47:48.071Z,102278.84
2022-10-07T02:50:20.989Z,102271.53
2022-10-07T02:52:50.418Z,102268.38
2022-10-07T02:55:22.741Z,102278.75
2022-10-07T02:57:53.538Z,102269.16
2022-10-07T03:00:23.509Z,102271.09
2022-10-07T03:02:53.573Z,102267.84
2022-10-07T03:05:22.585Z,102266.56
2022-10-07T03:07:52.705Z,102268.28
2022-10-07T03:10:20.718Z,102267.84
2022-10-07T03:12:48.640Z,102265.13
2022-10-07T03:15:16.759Z,102258.78
2022-10-07T03:17:46.514Z,102256.34
2022-10-07T03:20:15.225Z,102251.78
2022-10-07T03:22:43.661Z,102254.34
2022-10-07T03:25:12.345Z,102249.66
2022-10-07T03:27:42.552Z,102248.88
2022-10-07T03:30:12.281Z,102250.59
2022-10-07T03:32:41.400Z,102243.19
2022-10-07T03:35:11.194Z,102234.75
2022-10-07T03:37:39.050Z,102234.09
2022-10-07T03:40:07.664Z,102230.47
2022-10-07T03:42:35.559Z,102228.09
2022-10-07T03:45:03.539Z,102222.25
2022-10-07T03:47:31.422Z,102219.22
2022-10-07T03:49:59.356Z,102218.44
2022-10-07T03:52:28.807Z,102212.31
2022-10-07T03:54:57.257Z,102216.06
2022-10-07T03:57:42.927Z,102215.47
2022-10-07T04:00:11.996Z,102214.50
2022-10-07T04:02:39.900Z,102207.34
2022-10-07T04:05:08.284Z,102219.72
2022-10-07T04:07:37.734Z,102210.75
2022-10-07T04:10:06.156Z,102203.44
2022-10-07T04:12:34.074Z,102204.63
2022-10-07T04:15:02.521Z,102203.59
2022-10-07T04:17:30.456Z,102203.28
2022-10-07T04:19:58.493Z,102199.16
2022-10-07T04:22:26.889Z,102200.91
2022-10-07T04:25:13.670Z,102208.66
2022-10-07T04:27:51.527Z,102204.03
2022-10-07T04:30:20.171Z,102189.09
2022-10-07T04:32:48.694Z,102188.78
2022-10-07T04:35:17.022Z,102188.47
2022-10-07T04:37:45.117Z,102191.69
2022-10-07T04:40:14.649Z,102196.19
2022-10-07T04:43:14.285Z,102191.25
2022-10-07T04:45:42.246Z,102181.59
2022-10-07T04:48:10.238Z,102181.75
2022-10-07T04:50:39.107Z,102176.78
2022-10-07T04:53:07.354Z,102179.63
2022-10-07T04:55:40.012Z,102174.97
2022-10-07T04:58:08.174Z,102175.19
2022-10-07T05:00:36.982Z,102173.47
2022-10-07T05:03:04.951Z,102169.97
2022-10-07T05:05:33.970Z,102156.84
2022-10-07T05:08:01.868Z,102159.00
2022-10-07T05:10:29.782Z,102163.69
2022-10-07T05:12:59.037Z,102159.50
2022-10-07T05:15:27.010Z,102162.56
2022-10-07T05:17:55.994Z,102160.19
2022-10-07T05:20:24.239Z,102158.53
2022-10-07T05:22:52.155Z,102154.19
2022-10-07T05:25:21.045Z,102149.59
2022-10-07T05:27:53.957Z,102148.47
2022-10-07T05:30:23.395Z,102155.16
2022-10-07T05:32:51.669Z,102154.47
2022-10-07T05:35:19.572Z,102153.34
2022-10-07T05:37:51.021Z,102153.41
2022-10-07T05:40:19.399Z,102152.47
2022-10-07T05:42:47.315Z,102148.09
2022-10-07T05:45:15.385Z,102147.53
2022-10-07T05:47:44.935Z,102147.06
2022-10-07T05:50:13.230Z,102147.13
2022-10-07T05:52:42.598Z,102147.53
2022-10-07T05:55:10.957Z,102148.75
2022-10-07T05:57:39.277Z,102153.88
2022-10-07T06:00:08.757Z,102151.88
2022-10-07T06:02:38.960Z,102149.78
2022-10-07T06:05:10.119Z,102152.94
2022-10-07T06:07:38.046Z,102138.69
2022-10-07T06:10:24.241Z,102140.41
2022-10-07T06:13:10.050Z,102139.09
2022-10-07T06:15:38.253Z,102152.91
2022-10-07T06:18:06.493Z,102142.50
2022-10-07T06:20:36.003Z,102140.41
2022-10-07T06:23:03.973Z,102138.47
2022-10-07T06:25:31.901Z,102146.28
2022-10-07T06:28:00.094Z,102150.38
2022-10-07T06:30:29.217Z,102142.03
2022-10-07T06:32:57.478Z,102147.94
2022-10-07T06:35:25.431Z,102148.81
2022-10-07T06:37:54.701Z,102143.25
2022-10-07T06:40:22.618Z,102143.69
2022-10-07T06:42:51.321Z,102144.03
2022-10-07T06:45:19.249Z,102147.16
2022-10-07T06:47:47.641Z,102137.13
2022-10-07T06:50:16.185Z,102139.38
2022-10-07T06:52:44.183Z,102136.91
2022-10-07T06:55:13.515Z,102142.03
2022-10-07T06:57:45.608Z,102148.03
2022-10-07T07:00:15.324Z,102141.69
2022-10-07T07:02:43.521Z,102141.22
2022-10-07T07:05:15.626Z,102133.16
2022-10-07T07:07:43.993Z,102140.91
2022-10-07T07:10:13.557Z,102142.16
2022-10-07T07:12:41.565Z,102137.94
2022-10-07T07:15:11.021Z,102143.09
2022-10-07T07:17:38.923Z,102132.91
2022-10-07T07:20:07.530Z,102132.84
2022-10-07T07:22:35.755Z,102135.34
2022-10-07T07:25:03.633Z,102135.25
2022-10-07T07:27:32.969Z,102135.56
2022-10-07T07:30:00.990Z,102133.06
2022-10-07T07:32:30.138Z,102134.41
2022-10-07T07:35:00.717Z,102132.16
2022-10-07T07:37:30.238Z,102123.16
2022-10-07T07:39:58.712Z,102118.31
2022-10-07T07:42:28.197Z,102124.97
2022-10-07T07:45:01.139Z,102133.78
2022-10-07T07:47:29.869Z,102130.44
2022-10-07T07:49:57.815Z,102124.81
2022-10-07T07:52:26.194Z,102118.91
2022-10-07T07:54:57.942Z,102120.78
2022-10-07T07:57:26.173Z,102117.78
2022-10-07T07:59:54.734Z,102114.94
2022-10-07T08:02:24.307Z,102115.09
2022-10-07T08:04:52.397Z,102106.09
2022-10-07T08:07:20.370Z,102105.47
2022-10-07T08:09:48.302Z,102108.13
2022-10-07T08:12:16.214Z,102099.97
2022-10-07T08:14:44.302Z,102096.91
2022-10-07T08:17:12.203Z,102089.06
2022-10-07T08:19:41.558Z,102091.56
2022-10-07T08:22:09.606Z,102086.22
2022-10-07T08:24:37.728Z,102088.81
2022-10-07T08:27:05.628Z,102086.84
2022-10-07T08:29:33.557Z,102094.00
2022-10-07T08:32:01.489Z,102085.19
2022-10-07T08:34:29.482Z,102080.59
2022-10-07T08:36:58.771Z,102081.47
2022-10-07T08:39:29.495Z,102086.03
2022-10-07T08:42:06.710Z,102086.16
2022-10-07T08:44:38.474Z,102087.44
2022-10-07T08:47:16.048Z,102083.59
2022-10-07T08:49:54.098Z,102068.75
2022-10-07T08:52:35.209Z,102069.41
2022-10-07T08:55:04.169Z,102069.31
2022-10-07T08:57:46.584Z,102069.44
2022-10-07T09:00:18.698Z,102070.53
2022-10-07T09:02:58.347Z,102059.78
2022-10-07T09:05:28.417Z,102054.75
2022-10-07T09:07:59.338Z,102054.41
2022-10-07T09:10:32.312Z,102047.31
2022-10-07T09:13:03.338Z,102053.53
2022-10-07T09:15:39.064Z,102035.78
2022-10-07T09:18:13.922Z,102044.84
2022-10-07T09:20:45.702Z,102031.72
2022-10-07T09:23:16.565Z,102030.50
2022-10-07T09:25:44.831Z,102033.84
2022-10-07T09:28:15.152Z,102022.94
2022-10-07T09:30:43.676Z,102027.22
2022-10-07T09:33:17.016Z,102025.22
2022-10-07T09:35:57.250Z,102025.34
2022-10-07T09:38:35.960Z,102018.75
2022-10-07T09:41:22.446Z,102021.97
2022-10-07T09:44:01.885Z,102013.66
2022-10-07T09:46:47.892Z,102001.34
2022-10-07T09:49:32.153Z,102000.63
2022-10-07T09:52:01.810Z,101994.63
2022-10-07T09:54:32.595Z,101992.41
2022-10-07T09:57:03.095Z,101993.13
2022-10-07T09:59:32.229Z,101992.19
2022-10-07T10:02:01.798Z,101991.53
2022-10-07T10:04:33.573Z,101982.66
2022-10-07T10:07:04.985Z,101988.03
2022-10-07T10:09:35.062Z,101982.13
2022-10-07T10:12:14.862Z,101988.03
2022-10-07T10:14:47.251Z,101980.84
2022-10-07T10:17:28.162Z,101975.38
2022-10-07T10:19:56.970Z,101976.69
2022-10-07T10:22:26.923Z,101982.25
2022-10-07T10:25:14.598Z,101974.00
2022-10-07T10:27:50.718Z,101968.03
2022-10-07T10:30:22.086Z,101973.81
2022-10-07T10:33:07.187Z,101969.31
2022-10-07T10:35:41.901Z,101964.03
2022-10-07T10:38:28.913Z,101951.22
2022-10-07T10:41:04.033Z,101955.88
2022-10-07T10:43:36.769Z,101956.31
2022-10-07T10:46:19.432Z,101947.25
2022-10-07T10:48:54.810Z,101937.22
2022-10-07T10:51:34.401Z,101933.47
2022-10-07T10:54:13.154Z,101925.13
2022-10-07T10:56:47.973Z,101929.25
2022-10-07T10:59:29.442Z,101917.59
2022-10-07T11:02:03.811Z,101919.50
2022-10-07T11:04:43.554Z,101914.44
2022-10-07T11:07:18.666Z,101906.63
2022-10-07T11:09:49.510Z,101902.91
2022-10-07T11:12:24.999Z,101901.25
2022-10-07T11:14:58.042Z,101892.88
2022-10-07T11:17:31.413Z,101901.88
2022-10-07T11:20:06.265Z,101886.38
2022-10-07T11:22:38.087Z,101882.13
2022-10-07T11:25:15.916Z,101883.09
2022-10-07T11:27:46.953Z,101886.91
2022-10-07T11:30:18.809Z,101885.91
2022-10-07T11:32:52.438Z,101877.47
2022-10-07T11:35:26.581Z,101868.78
2022-10-07T11:37:59.790Z,101869.66
2022-10-07T11:40:31.466Z,101861.25
2022-10-07T11:43:06.814Z,101859.94
2022-10-07T11:45:42.230Z,101855.56
2022-10-07T11:48:14.225Z,101860.06
2022-10-07T11:50:44.981Z,101848.91
2022-10-07T11:53:20.367Z,101842.81
2022-10-07T11:55:55.019Z,101842.50
2022-10-07T11:58:28.041Z,101832.38
2022-10-07T12:01:29.439Z,101833.25
2022-10-07T12:04:37.052Z,101829.25
2022-10-07T12:07:50.608Z,101815.66
2022-10-07T12:10:29.269Z,101805.53
2022-10-07T12:13:00.290Z,101811.56
2022-10-07T12:15:32.477Z,101797.81
2022-10-07T12:18:24.246Z,101799.91
2022-10-07T12:21:06.289Z,101798.28
2022-10-07T12:23:44.765Z,101789.38
2022-10-07T12:26:48.548Z,101788.84
2022-10-07T12:29:29.962Z,101788.78
2022-10-07T12:31:59.661Z,101785.06
2022-10-07T12:34:41.271Z,101782.53
2022-10-07T12:37:37.852Z,101776.91
2022-10-07T12:40:16.233Z,101773.22
2022-10-07T12:42:52.423Z,101764.28
2022-10-07T12:45:21.494Z,101768.78
2022-10-07T12:47:52.955Z,101752.94
2022-10-07T12:50:21.325Z,101754.38
2022-10-07T12:52:52.148Z,101754.63
2022-10-07T12:55:25.842Z,101747.25
2022-10-07T12:58:18.483Z,101744.19
2022-10-07T13:01:04.464Z,101745.50
2022-10-07T13:03:53.566Z,101744.44
2022-10-07T13:06:50.915Z,101734.00
2022-10-07T13:09:37.814Z,101736.59
2022-10-07T13:12:21.794Z,101730.78
2022-10-07T13:15:03.158Z,101734.13
2022-10-07T13:17:39.512Z,101726.88
2022-10-07T13:20:16.835Z,101724.97
2022-10-07T13:22:48.497Z,101719.00
2022-10-07T13:25:19.750Z,101717.19
2022-10-07T13:27:52.124Z,101717.38
2022-10-07T13:30:37.227Z,101716.25
2022-10-07T13:33:23.773Z,101712.03
2022-10-07T13:36:01.825Z,101721.13
2022-10-07T13:38:30.412Z,101722.81
2022-10-07T13:41:03.363Z,101709.88
2022-10-07T13:43:33.114Z,101706.22
2022-10-07T13:46:02.171Z,101707.72
2022-10-07T13:48:35.065Z,101699.16
2022-10-07T13:51:05.092Z,101693.44
2022-10-07T13:53:35.288Z,101692.50
2022-10-07T13:56:08.946Z,101698.97
2022-10-07T13:58:38.174Z,101684.34
2022-10-07T14:01:07.097Z,101694.25
2022-10-07T14:03:35.062Z,101690.75
2022-10-07T14:06:04.677Z,101679.63
2022-10-07T14:08:33.135Z,101673.31
2022-10-07T14:11:05.014Z,101667.00
2022-10-07T14:13:33.427Z,101650.00
2022-10-07T14:16:01.552Z,101651.91
2022-10-07T14:18:31.430Z,101641.56
2022-10-07T14:21:16.842Z,101634.66
2022-10-07T14:23:46.935Z,101639.09
2022-10-07T14:26:16.550Z,101625.66
2022-10-07T14:28:45.146Z,101629.69
2022-10-07T14:31:37.811Z,101633.19
2022-10-07T14:34:31.322Z,101623.53
2022-10-07T14:37:08.133Z,101612.88
2022-10-07T14:39:38.228Z,101610.50
2022-10-07T14:42:10.378Z,101612.13
2022-10-07T14:44:38.750Z,101592.34
2022-10-07T14:47:08.151Z,101601.78
2022-10-07T14:49:36.389Z,101591.19
2022-10-07T14:52:06.265Z,101607.06
2022-10-07T14:54:35.109Z,101589.41
2022-10-07T14:57:03.030Z,101593.56
2022-10-07T14:59:30.985Z,101595.91
2022-10-07T15:01:58.981Z,101589.72
2022-10-07T15:04:26.986Z,101597.50
2022-10-07T15:06:54.961Z,101594.81
2022-10-07T15:09:24.265Z,101587.66
2022-10-07T15:11:52.289Z,101588.84
2022-10-07T15:14:20.149Z,101579.75
2022-10-07T15:16:48.106Z,101575.00
2022-10-07T15:19:16.014Z,101576.50
2022-10-07T15:21:43.892Z,101576.19
2022-10-07T15:24:12.942Z,101575.25
2022-10-07T15:26:42.402Z,101576.56
2022-10-07T15:29:10.297Z,101572.78
2022-10-07T15:31:38.243Z,101567.38
2022-10-07T15:34:06.141Z,101568.31
2022-10-07T15:36:34.010Z,101569.78
2022-10-07T15:39:02.396Z,101569.31
2022-10-07T15:41:35.334Z,101570.25
2022-10-07T15:44:06.363Z,101558.03
2022-10-07T15:46:35.021Z,101553.88
2022-10-07T15:49:03.850Z,101558.84
2022-10-07T15:51:31.767Z,101552.38
2022-10-07T15:53:59.945Z,101549.81
2022-10-07T15:56:28.021Z,101548.22
2022-10-07T15:58:56.164Z,101551.09
2022-10-07T16:01:26.581Z,101552.16
2022-10-07T16:03:54.619Z,101550.19
2022-10-07T16:06:24.914Z,101553.94
2022-10-07T16:08:55.085Z,101556.88
2022-10-07T16:11:23.021Z,101552.72
2022-10-07T16:13:51.681Z,101554.88
2022-10-07T16:16:22.289Z,101551.75
2022-10-07T16:18:52.717Z,101554.47
2022-10-07T16:21:22.904Z,101558.53
2022-10-07T16:23:52.282Z,101548.00
2022-10-07T16:26:21.662Z,101552.94
2022-10-07T16:29:08.845Z,101556.78
2022-10-07T16:31:40.907Z,101547.47
2022-10-07T16:34:12.197Z,101551.84
2022-10-07T16:36:45.401Z,101547.38
2022-10-07T16:39:14.266Z,101541.78
2022-10-07T16:41:42.502Z,101538.75
2022-10-07T16:44:10.394Z,101539.06
2022-10-07T16:46:38.419Z,101537.75
2022-10-07T16:49:07.738Z,101531.16
2022-10-07T16:51:38.775Z,101536.06
2022-10-07T16:54:12.732Z,101530.91
2022-10-07T16:56:44.276Z,101526.72
2022-10-07T16:59:16.458Z,101527.59
2022-10-07T17:01:48.101Z,101523.75
2022-10-07T17:04:16.213Z,101521.88
2022-10-07T17:06:45.712Z,101512.78
2022-10-07T17:09:14.093Z,101511.38
2022-10-07T17:11:42.714Z,101512.66
2022-10-07T17:14:11.852Z,101509.50
2022-10-07T17:16:42.282Z,101515.44
2022-10-07T17:19:12.914Z,101511.81
2022-10-07T17:21:42.004Z,101512.41
2022-10-07T17:24:13.215Z,101507.53
2022-10-07T17:26:41.590Z,101509.53
2022-10-07T17:29:12.050Z,101508.84
2022-10-07T17:31:42.579Z,101511.97
2022-10-07T17:34:11.354Z,101506.81
2022-10-07T17:36:39.344Z,101513.97
2022-10-07T17:39:07.742Z,101504.63
2022-10-07T17:41:38.595Z,101506.81
2022-10-07T17:44:09.377Z,101508.97
2022-10-07T17:46:39.271Z,101507.22
2022-10-07T17:49:08.758Z,101507.09
2022-10-07T17:51:37.401Z,101500.19
2022-10-07T17:54:06.562Z,101503.38
2022-10-07T17:56:36.381Z,101494.31
2022-10-07T17:59:05.543Z,101500.81
2022-10-07T18:01:35.355Z,101500.06
2022-10-07T18:04:04.972Z,101491.03
2022-10-07T18:06:34.720Z,101481.84
2022-10-07T18:09:03.477Z,101488.59
2022-10-07T18:11:45.390Z,101495.94
2022-10-07T18:14:32.213Z,101481.41
2022-10-07T18:17:00.158Z,101475.09
2022-10-07T18:19:29.527Z,101476.13
2022-10-07T18:21:57.692Z,101472.81
2022-10-07T18:24:27.404Z,101469.78
2022-10-07T18:26:58.460Z,101463.47
2022-10-07T18:29:28.011Z,101458.44
2022-10-07T18:31:56.249Z,101443.69
2022-10-07T18:34:24.405Z,101445.00
2022-10-07T18:36:56.197Z,101450.13
2022-10-07T18:39:24.876Z,101450.84
2022-10-07T18:41:52.849Z,101450.59
2022-10-07T18:44:20.909Z,101455.19
2022-10-07T18:46:50.393Z,101457.31
2022-10-07T18:49:18.294Z,101452.59
2022-10-07T18:51:47.311Z,101444.56
2022-10-07T18:54:15.445Z,101447.16
2022-10-07T18:56:43.374Z,101455.03
2022-10-07T18:59:13.209Z,101450.31
2022-10-07T19:01:41.658Z,101452.03
2022-10-07T19:04:12.244Z,101454.31
2022-10-07T19:06:43.929Z,101449.56
2022-10-07T19:09:14.327Z,101449.13
2022-10-07T19:11:42.304Z,101456.59
2022-10-07T19:14:09.366Z,101455.63
2022-10-07T19:16:38.792Z,101454.31
2022-10-07T19:19:07.950Z,101444.28
2022-10-07T19:21:37.266Z,101443.41
2022-10-07T19:24:05.690Z,101431.50
2022-10-07T19:26:35.834Z,101428.78
2022-10-07T19:29:05.680Z,101427.91
2022-10-07T19:31:35.284Z,101428.06
2022-10-07T19:34:05.153Z,101425.75
2022-10-07T19:36:35.062Z,101430.50
2022-10-07T19:39:05.434Z,101434.91
2022-10-07T19:41:34.595Z,101421.97
2022-10-07T19:44:02.865Z,101428.44
2022-10-07T19:46:32.481Z,101419.97
2022-10-07T19:49:02.041Z,101427.69
2022-10-07T19:51:31.419Z,101416.53
2022-10-07T19:54:00.524Z,101417.25
2022-10-07T19:56:31.310Z,101418.38
2022-10-07T19:59:00.926Z,101422.38
2022-10-07T20:01:31.903Z,101414.03
2022-10-07T20:04:01.327Z,101409.72
2022-10-07T20:06:29.921Z,101409.00
2022-10-07T20:08:58.127Z,101403.94
2022-10-07T20:11:27.788Z,101405.56
2022-10-07T20:13:57.134Z,101399.19
2022-10-07T20:16:26.133Z,101401.38
2022-10-07T20:19:01.166Z,101400.50
2022-10-07T20:21:30.367Z,101399.50
2022-10-07T20:23:58.407Z,101403.06
2022-10-07T20:26:28.841Z,101400.38
2022-10-07T20:28:59.342Z,101400.13
2022-10-07T20:31:29.155Z,101398.22
2022-10-07T20:33:59.631Z,101383.78
2022-10-07T20:36:30.447Z,101384.06
2022-10-07T20:39:16.880Z,101380.19
2022-10-07T20:42:02.424Z,101379.22
2022-10-07T20:44:31.682Z,101381.06
2022-10-07T20:46:59.565Z,101370.28
2022-10-07T20:49:29.882Z,101376.44
2022-10-07T20:51:59.469Z,101371.88
2022-10-07T20:54:27.906Z,101362.56
2022-10-07T20:56:57.834Z,101369.84
2022-10-07T20:59:26.221Z,101357.97
2022-10-07T21:01:56.261Z,101353.25
2022-10-07T21:04:25.211Z,101350.19
2022-10-07T21:06:53.400Z,101341.31
2022-10-07T21:09:21.753Z,101347.91
2022-10-07T21:11:50.010Z,101332.88
2022-10-07T21:14:18.586Z,101340.44
2022-10-07T21:16:47.514Z,101336.41
2022-10-07T21:19:17.150Z,101328.84
2022-10-07T21:21:46.087Z,101319.63
2022-10-07T21:24:14.694Z,101333.66
2022-10-07T21:26:42.638Z,101331.50
2022-10-07T21:29:12.007Z,101327.47
2022-10-07T21:31:40.031Z,101319.56
2022-10-07T21:34:08.611Z,101311.41
2022-10-07T21:36:39.334Z,101306.81
2022-10-07T21:39:07.793Z,101306.66
2022-10-07T21:41:38.643Z,101301.09
2022-10-07T21:44:07.866Z,101304.25
2022-10-07T21:46:37.360Z,101294.78
2022-10-07T21:49:06.237Z,101302.22
2022-10-07T21:51:34.720Z,101295.06
2022-10-07T21:54:04.451Z,101293.75
2022-10-07T21:56:33.741Z,101293.75
2022-10-07T21:59:03.930Z,101289.59
2022-10-07T22:01:32.273Z,101283.78
2022-10-07T22:04:01.817Z,101286.25
2022-10-07T22:06:48.118Z,101280.66
2022-10-07T22:09:20.350Z,101289.69
2022-10-07T22:11:48.663Z,101283.34
2022-10-07T22:14:17.225Z,101272.88
2022-10-07T22:16:48.001Z,101277.47
2022-10-07T22:19:16.612Z,101271.16
2022-10-07T22:21:45.771Z,101279.19
2022-10-07T22:24:14.905Z,101264.56
2022-10-07T22:26:46.377Z,101274.81
2022-10-07T22:29:16.196Z,101263.66
2022-10-07T22:31:44.335Z,101263.91
2022-10-07T22:34:32.777Z,101250.78
2022-10-07T22:36:59.804Z,101251.31
2022-10-07T22:39:28.585Z,101251.56
2022-10-07T22:41:58.521Z,101249.00
2022-10-07T22:44:28.104Z,101249.16
2022-10-07T22:46:56.298Z,101244.72
2022-10-07T22:49:29.365Z,101257.69
2022-10-07T22:51:58.421Z,101256.31
2022-10-07T22:54:26.853Z,101251.50
2022-10-07T22:56:54.905Z,101251.16
2022-10-07T22:59:24.246Z,101245.59
2022-10-07T23:01:52.507Z,101247.25
2022-10-07T23:04:21.497Z,101247.53
2022-10-07T23:06:49.644Z,101240.09
2022-10-07T23:09:17.526Z,101249.78
2022-10-07T23:11:45.813Z,101252.03
2022-10-07T23:14:13.942Z,101250.03
2022-10-07T23:16:44.260Z,101237.19
2022-10-07T23:19:12.237Z,101251.06
2022-10-07T23:21:40.172Z,101238.91
2022-10-07T23:24:10.028Z,101240.19
2022-10-07T23:26:38.429Z,101228.84
2022-10-07T23:29:07.662Z,101232.69
2022-10-07T23:31:35.833Z,101230.81
2022-10-07T23:34:06.338Z,101227.91
2022-10-07T23:36:35.219Z,101227.91
2022-10-07T23:39:03.306Z,101219.91
2022-10-07T23:41:32.139Z,101219.03
2022-10-07T23:44:02.168Z,101211.97
2022-10-07T23:46:33.153Z,101215.09
2022-10-07T23:49:01.344Z,101215.59
2022-10-07T23:51:32.265Z,101207.00
2022-10-07T23:54:01.378Z,101199.59
2022-10-07T23:56:29.298Z,101201.88
2022-10-07T23:58:57.489Z,101201.16
